createdAt,value
2023-02-16T00:02:01.877Z,96620.75
2023-02-16T00:04:31.667Z,96614.06
2023-02-16T00:07:01.347Z,96623.97
2023-02-16T00:09:29.672Z,96620.72
2023-02-16T00:12:12.923Z,96619.09
2023-02-16T00:14:41.652Z,96617.06
2023-02-16T00:17:12.889Z,96620.13
2023-02-16T00:19:43.092Z,96621.91
2023-02-16T00:22:12.776Z,96621.50
2023-02-16T00:24:41.132Z,96545.50
2023-02-16T00:27:18.611Z,96633.22
2023-02-16T00:29:46.933Z,96628.94
2023-02-16T00:32:15.824Z,96576.78
2023-02-16T00:34:44.932Z,96627.91
2023-02-16T00:37:15.477Z,96621.25
2023-02-16T00:39:45.199Z,96621.63
2023-02-16T00:42:18.361Z,96616.22
2023-02-16T00:44:48.489Z,96623.50
2023-02-16T00:47:21.227Z,96627.03
2023-02-16T00:49:50.670Z,96620.53
2023-02-16T00:52:36.194Z,96616.16
2023-02-16T00:55:08.103Z,96618.19
2023-02-16T00:57:40.293Z,96567.44
2023-02-16T01:00:15.150Z,96611.00
2023-02-16T01:02:43.978Z,96605.66
2023-02-16T01:05:13.241Z,96579.22
2023-02-16T01:08:03.440Z,96606.28
2023-02-16T01:10:49.170Z,96611.69
2023-02-16T01:13:18.606Z,96569.97
2023-02-16T01:15:47.198Z,96603.59
2023-02-16T01:18:16.840Z,96604.94
2023-02-16T01:20:45.897Z,96601.53
2023-02-16T01:23:15.853Z,96608.38
2023-02-16T01:25:44.256Z,96533.00
2023-02-16T01:28:20.653Z,96594.63
2023-02-16T01:30:49.131Z,96595.81
2023-02-16T01:33:17.474Z,96565.09
2023-02-16T01:35:46.478Z,96595.38
2023-02-16T01:38:19.682Z,96498.50
2023-02-16T01:40:55.249Z,96534.72
2023-02-16T01:43:28.455Z,96595.78
2023-02-16T01:46:02.829Z,96593.72
2023-02-16T01:48:32.825Z,96558.00
2023-02-16T01:51:08.460Z,96601.03
2023-02-16T01:53:42.623Z,96584.97
2023-02-16T01:56:21.432Z,96589.13
2023-02-16T01:58:53.665Z,96591.09
2023-02-16T02:01:49.660Z,96567.50
2023-02-16T02:04:42.131Z,96575.66
2023-02-16T02:07:20.649Z,96569.00
2023-02-16T02:09:59.012Z,96575.22
2023-02-16T02:12:34.092Z,96575.13
2023-02-16T02:15:02.377Z,96501.41
2023-02-16T02:17:30.702Z,96567.97
2023-02-16T02:20:09.872Z,96391.66
2023-02-16T02:23:31.582Z,96489.78
2023-02-16T02:26:35.188Z,96550.97
2023-02-16T02:29:17.330Z,96564.75
2023-02-16T02:31:57.200Z,96545.38
2023-02-16T02:34:35.344Z,96576.34
2023-02-16T02:37:12.186Z,96571.88
2023-02-16T02:39:52.837Z,96564.50
2023-02-16T02:42:26.920Z,96537.13
2023-02-16T02:45:00.527Z,96565.50
2023-02-16T02:47:39.821Z,96505.34
2023-02-16T02:50:38.591Z,96565.66
2023-02-16T02:53:12.130Z,96497.09
2023-02-16T02:56:02.556Z,96569.72
2023-02-16T02:58:54.548Z,96530.81
2023-02-16T03:01:25.554Z,96573.41
2023-02-16T03:03:56.706Z,96584.13
2023-02-16T03:06:28.917Z,96578.34
2023-02-16T03:09:03.730Z,96575.50
2023-02-16T03:11:49.677Z,96539.56
2023-02-16T03:14:21.679Z,96570.25
2023-02-16T03:17:13.300Z,96573.69
2023-02-16T03:20:01.222Z,96582.94
2023-02-16T03:22:48.144Z,96575.81
2023-02-16T03:25:34.714Z,96574.22
2023-02-16T03:28:23.699Z,96574.63
2023-02-16T03:30:54.156Z,96581.16
2023-02-16T03:33:25.130Z,96573.50
2023-02-16T03:35:54.777Z,96572.00
2023-02-16T03:38:25.974Z,96576.31
2023-02-16T03:40:54.520Z,96580.06
2023-02-16T03:43:26.294Z,96575.41
2023-02-16T03:45:54.800Z,96566.81
2023-02-16T03:48:24.590Z,96573.16
2023-02-16T03:50:53.003Z,96570.50
2023-02-16T03:53:21.266Z,96504.50
2023-02-16T03:55:51.837Z,96565.41
2023-02-16T03:58:22.040Z,96522.31
2023-02-16T04:00:50.678Z,96500.03
2023-02-16T04:03:19.162Z,96469.88
2023-02-16T04:05:48.842Z,96547.56
2023-02-16T04:08:17.208Z,96573.00
2023-02-16T04:10:45.878Z,96575.50
2023-02-16T04:13:13.171Z,96568.50
2023-02-16T04:15:42.489Z,96470.09
2023-02-16T04:18:10.933Z,96580.75
2023-02-16T04:20:39.315Z,96573.56
2023-02-16T04:23:09.297Z,96548.69
2023-02-16T04:25:37.665Z,96566.25
2023-02-16T04:28:05.873Z,96580.31
2023-02-16T04:30:34.279Z,96573.97
2023-02-16T04:33:02.684Z,96573.28
2023-02-16T04:35:31.028Z,96578.47
2023-02-16T04:37:59.313Z,96543.06
2023-02-16T04:40:29.018Z,96582.22
2023-02-16T04:42:57.271Z,96542.06
2023-02-16T04:45:25.586Z,96558.31
2023-02-16T04:47:55.578Z,96578.13
2023-02-16T04:50:25.690Z,96563.78
2023-02-16T04:52:56.622Z,96580.94
2023-02-16T04:55:25.741Z,96575.59
2023-02-16T04:57:55.412Z,96595.50
2023-02-16T05:00:26.471Z,96590.75
2023-02-16T05:02:54.853Z,96535.91
2023-02-16T05:05:23.167Z,96602.63
2023-02-16T05:07:51.431Z,96602.63
2023-02-16T05:10:19.877Z,96605.84
2023-02-16T05:13:05.646Z,96617.47
2023-02-16T05:15:35.420Z,96611.06
2023-02-16T05:18:06.044Z,96607.56
2023-02-16T05:20:51.674Z,96612.97
2023-02-16T05:23:20.074Z,96616.22
2023-02-16T05:25:48.372Z,96613.88
2023-02-16T05:28:16.796Z,96599.66
2023-02-16T05:30:46.522Z,96620.25
2023-02-16T05:33:14.953Z,96621.06
2023-02-16T05:35:43.277Z,96613.03
2023-02-16T05:38:14.391Z,96585.84
2023-02-16T05:40:45.868Z,96606.25
2023-02-16T05:43:14.063Z,96621.22
2023-02-16T05:45:42.276Z,96615.44
2023-02-16T05:48:12.010Z,96584.72
2023-02-16T05:50:40.286Z,96489.81
2023-02-16T05:53:08.574Z,96606.16
2023-02-16T05:55:39.874Z,96590.91
2023-02-16T05:58:08.237Z,96622.25
2023-02-16T06:00:36.769Z,96637.81
2023-02-16T06:03:05.227Z,96649.53
2023-02-16T06:05:35.370Z,96652.53
2023-02-16T06:08:04.301Z,96658.50
2023-02-16T06:10:32.522Z,96652.66
2023-02-16T06:13:00.800Z,96648.00
2023-02-16T06:15:29.367Z,96658.28
2023-02-16T06:17:57.756Z,96634.53
2023-02-16T06:20:28.698Z,96641.38
2023-02-16T06:22:58.365Z,96658.00
2023-02-16T06:25:26.725Z,96661.28
2023-02-16T06:27:57.038Z,96647.94
2023-02-16T06:30:28.298Z,96664.22
2023-02-16T06:32:56.558Z,96641.97
2023-02-16T06:35:24.866Z,96655.38
2023-02-16T06:37:54.459Z,96656.78
2023-02-16T06:40:25.898Z,96641.47
2023-02-16T06:42:56.793Z,96668.66
2023-02-16T06:45:25.059Z,96667.25
2023-02-16T06:47:53.496Z,96607.81
2023-02-16T06:50:21.798Z,96649.25
2023-02-16T06:52:49.988Z,96653.28
2023-02-16T06:55:18.457Z,96662.00
2023-02-16T06:57:48.120Z,96655.84
2023-02-16T07:00:17.963Z,96656.19
2023-02-16T07:02:46.931Z,96605.22
2023-02-16T07:05:15.726Z,96650.56
2023-02-16T07:07:43.958Z,96642.00
2023-02-16T07:10:12.592Z,96651.31
2023-02-16T07:12:40.845Z,96645.63
2023-02-16T07:15:11.178Z,96646.91
2023-02-16T07:17:39.798Z,96603.63
2023-02-16T07:20:09.332Z,96602.59
2023-02-16T07:22:37.678Z,96646.31
2023-02-16T07:25:06.312Z,96643.47
2023-02-16T07:27:34.682Z,96648.06
2023-02-16T07:30:02.965Z,96643.81
2023-02-16T07:32:32.971Z,96625.13
2023-02-16T07:35:01.227Z,96640.06
2023-02-16T07:37:29.505Z,96640.41
2023-02-16T07:39:57.858Z,96629.19
2023-02-16T07:42:26.167Z,96637.28
2023-02-16T07:44:54.454Z,96641.56
2023-02-16T07:47:22.785Z,96627.66
2023-02-16T07:49:52.903Z,96623.16
2023-02-16T07:52:21.189Z,96634.91
2023-02-16T07:54:49.580Z,96632.91
2023-02-16T07:57:17.928Z,96576.66
2023-02-16T07:59:46.309Z,96612.47
2023-02-16T08:02:18.356Z,96619.72
2023-02-16T08:04:46.759Z,96608.69
2023-02-16T08:07:17.826Z,96570.66
2023-02-16T08:09:46.318Z,96621.66
2023-02-16T08:12:16.022Z,96621.38
2023-02-16T08:14:44.995Z,96617.13
2023-02-16T08:17:13.676Z,96612.31
2023-02-16T08:19:42.249Z,96611.63
2023-02-16T08:22:12.340Z,96609.78
2023-02-16T08:24:42.110Z,96612.09
2023-02-16T08:27:11.010Z,96610.25
2023-02-16T08:29:39.258Z,96607.63
2023-02-16T08:32:08.194Z,96617.91
2023-02-16T08:34:36.884Z,96601.97
2023-02-16T08:37:05.138Z,96574.16
2023-02-16T08:39:35.285Z,96603.06
2023-02-16T08:42:06.896Z,96608.16
2023-02-16T08:44:35.276Z,96611.84
2023-02-16T08:47:03.879Z,96614.22
2023-02-16T08:49:33.204Z,96611.03
2023-02-16T08:52:02.049Z,96604.56
2023-02-16T08:54:33.562Z,96605.19
2023-02-16T08:57:03.161Z,96602.19
2023-02-16T08:59:33.457Z,96606.22
2023-02-16T09:02:02.302Z,96590.03
2023-02-16T09:04:31.326Z,96592.69
2023-02-16T09:06:59.774Z,96546.47
2023-02-16T09:09:28.822Z,96595.06
2023-02-16T09:11:59.421Z,96593.44
2023-02-16T09:14:28.109Z,96592.38
2023-02-16T09:16:58.192Z,96601.22
2023-02-16T09:19:26.589Z,96545.38
2023-02-16T09:21:56.446Z,96544.31
2023-02-16T09:24:25.409Z,96584.78
2023-02-16T09:26:53.732Z,96583.94
2023-02-16T09:29:22.306Z,96582.97
2023-02-16T09:31:50.607Z,96591.88
2023-02-16T09:34:22.820Z,96576.78
2023-02-16T09:36:52.893Z,96575.28
2023-02-16T09:39:21.688Z,96584.47
2023-02-16T09:42:03.582Z,96525.19
2023-02-16T09:44:43.485Z,96571.88
2023-02-16T09:47:20.774Z,96569.50
2023-02-16T09:49:51.349Z,96562.59
2023-02-16T09:52:26.386Z,96561.59
2023-02-16T09:54:57.764Z,96559.13
2023-02-16T09:57:42.108Z,96556.16
2023-02-16T10:00:22.351Z,96527.81
2023-02-16T10:02:57.625Z,96470.13
2023-02-16T10:05:32.662Z,96543.56
2023-02-16T10:08:07.817Z,96532.34
2023-02-16T10:10:42.032Z,96515.72
2023-02-16T10:13:19.275Z,96522.50
2023-02-16T10:15:54.003Z,96523.25
2023-02-16T10:18:27.938Z,96502.28
2023-02-16T10:21:02.557Z,96500.88
2023-02-16T10:23:47.624Z,96494.59
2023-02-16T10:26:21.541Z,96495.88
2023-02-16T10:28:55.117Z,96503.84
2023-02-16T10:31:33.668Z,96489.78
2023-02-16T10:34:18.288Z,96445.47
2023-02-16T10:37:04.116Z,96490.38
2023-02-16T10:39:40.440Z,96464.06
2023-02-16T10:42:19.160Z,96486.38
2023-02-16T10:44:52.508Z,96478.31
2023-02-16T10:47:33.473Z,96477.94
2023-02-16T10:50:01.975Z,96474.97
2023-02-16T10:52:35.744Z,96454.69
2023-02-16T10:55:04.033Z,96463.97
2023-02-16T10:57:34.065Z,96457.56
2023-02-16T11:00:08.243Z,96452.22
2023-02-16T11:02:39.343Z,96449.44
2023-02-16T11:05:33.459Z,96447.56
2023-02-16T11:08:03.952Z,96444.38
2023-02-16T11:10:46.426Z,96441.25
2023-02-16T11:13:31.577Z,96421.38
2023-02-16T11:16:07.104Z,96421.84
2023-02-16T11:18:38.508Z,96408.22
2023-02-16T11:21:08.734Z,96419.66
2023-02-16T11:23:40.630Z,96416.41
2023-02-16T11:26:24.276Z,96345.75
2023-02-16T11:28:52.800Z,96410.88
2023-02-16T11:31:27.157Z,96330.03
2023-02-16T11:34:02.935Z,96395.38
2023-02-16T11:36:37.745Z,96399.09
2023-02-16T11:39:16.007Z,96396.97
2023-02-16T11:41:47.274Z,96395.88
2023-02-16T11:44:27.481Z,96380.66
2023-02-16T11:46:57.808Z,96385.22
2023-02-16T11:49:34.524Z,96391.28
2023-02-16T11:52:21.129Z,96381.59
2023-02-16T11:54:57.684Z,96372.03
2023-02-16T11:57:28.718Z,96372.81
2023-02-16T11:59:58.459Z,96362.66
2023-02-16T12:02:46.560Z,96378.06
2023-02-16T12:05:27.226Z,96343.53
2023-02-16T12:08:11.191Z,96358.94
2023-02-16T12:10:52.808Z,96325.00
2023-02-16T12:13:28.802Z,96341.81
2023-02-16T12:16:04.677Z,96345.34
2023-02-16T12:18:44.132Z,96336.59
2023-02-16T12:21:21.160Z,96334.06
2023-02-16T12:24:01.829Z,96294.97
2023-02-16T12:26:49.011Z,96319.75
2023-02-16T12:29:29.754Z,96325.31
2023-02-16T12:32:13.898Z,96322.59
2023-02-16T12:34:57.660Z,96316.31
2023-02-16T12:37:35.290Z,96303.66
2023-02-16T12:40:13.797Z,96322.41
2023-02-16T12:42:57.690Z,96314.16
2023-02-16T12:45:32.546Z,96305.81
2023-02-16T12:48:27.512Z,96295.25
2023-02-16T12:50:57.979Z,96293.81
2023-02-16T12:53:30.486Z,96296.50
2023-02-16T12:56:03.644Z,96292.22
2023-02-16T12:58:37.629Z,96291.91
2023-02-16T13:01:12.343Z,96293.06
2023-02-16T13:03:46.547Z,96288.88
2023-02-16T13:06:26.722Z,96286.84
2023-02-16T13:09:03.755Z,96267.91
2023-02-16T13:11:36.086Z,96282.84
2023-02-16T13:14:13.096Z,96276.94
2023-02-16T13:16:46.490Z,96288.59
2023-02-16T13:19:16.613Z,96208.91
2023-02-16T13:22:13.019Z,96277.78
2023-02-16T13:24:52.941Z,96280.44
2023-02-16T13:27:33.986Z,96277.34
2023-02-16T13:30:23.043Z,96271.34
2023-02-16T13:33:10.016Z,96270.00
2023-02-16T13:36:11.247Z,96273.66
2023-02-16T13:39:12.830Z,96273.78
2023-02-16T13:42:12.019Z,96286.34
2023-02-16T13:44:44.833Z,96278.63
2023-02-16T13:47:18.360Z,96266.38
2023-02-16T13:49:48.271Z,96264.44
2023-02-16T13:52:31.220Z,96274.78
2023-02-16T13:55:01.655Z,96274.84
2023-02-16T13:58:01.808Z,96267.66
2023-02-16T14:00:33.930Z,96260.19
2023-02-16T14:03:09.328Z,96266.72
2023-02-16T14:05:41.144Z,96250.81
2023-02-16T14:08:24.483Z,96267.00
2023-02-16T14:11:14.068Z,96263.38
2023-02-16T14:13:49.067Z,96265.06
2023-02-16T14:16:33.116Z,96269.22
2023-02-16T14:19:05.945Z,96268.19
2023-02-16T14:21:40.093Z,96271.09
2023-02-16T14:24:14.497Z,96107.41
2023-02-16T14:27:02.388Z,96248.75
2023-02-16T14:29:36.364Z,96266.84
2023-02-16T14:32:15.479Z,96231.59
2023-02-16T14:34:56.130Z,96263.75
2023-02-16T14:37:37.591Z,96202.56
2023-02-16T14:40:18.848Z,96261.03
2023-02-16T14:42:54.713Z,96232.38
2023-02-16T14:45:44.527Z,96253.69
2023-02-16T14:48:28.197Z,96255.53
2023-02-16T14:51:18.541Z,96263.53
2023-02-16T14:54:17.818Z,96261.81
2023-02-16T14:56:50.957Z,96171.81
2023-02-16T14:59:31.734Z,96274.25
2023-02-16T15:02:00.517Z,96279.94
2023-02-16T15:04:30.402Z,96263.28
2023-02-16T15:07:03.904Z,96272.56
2023-02-16T15:09:34.592Z,96182.88
2023-02-16T15:12:24.592Z,96273.72
2023-02-16T15:14:56.889Z,96279.28
2023-02-16T15:17:35.800Z,96287.28
2023-02-16T15:20:10.775Z,96285.69
2023-02-16T15:22:44.804Z,96286.22
2023-02-16T15:25:24.402Z,96300.94
2023-02-16T15:27:59.232Z,96297.28
2023-02-16T15:30:30.698Z,96299.75
2023-02-16T15:33:01.591Z,96301.94
2023-02-16T15:35:38.119Z,96290.00
2023-02-16T15:38:22.241Z,96285.03
2023-02-16T15:40:55.033Z,96304.63
2023-02-16T15:43:32.102Z,96306.88
2023-02-16T15:46:03.266Z,96303.91
2023-02-16T15:48:33.714Z,96303.00
2023-02-16T15:51:12.765Z,96299.69
2023-02-16T15:53:48.501Z,96313.09
2023-02-16T15:56:45.497Z,96311.00
2023-02-16T15:59:32.064Z,96313.16
2023-02-16T16:02:05.419Z,96324.00
2023-02-16T16:04:38.809Z,96319.28
2023-02-16T16:07:08.538Z,96319.91
2023-02-16T16:09:39.595Z,96314.06
2023-02-16T16:12:12.260Z,96324.06
2023-02-16T16:14:43.657Z,96331.88
2023-02-16T16:17:16.694Z,96180.03
2023-02-16T16:19:45.083Z,96318.97
2023-02-16T16:22:33.171Z,96335.25
2023-02-16T16:25:03.544Z,96342.94
2023-02-16T16:27:36.070Z,96342.13
2023-02-16T16:30:27.623Z,96344.63
2023-02-16T16:33:03.882Z,96346.38
2023-02-16T16:35:38.078Z,96350.94
2023-02-16T16:38:07.646Z,96344.03
2023-02-16T16:40:38.433Z,96355.88
2023-02-16T16:43:13.145Z,96356.59
2023-02-16T16:45:43.513Z,96353.81
2023-02-16T16:48:18.389Z,96343.81
2023-02-16T16:50:47.834Z,96357.25
2023-02-16T16:53:41.014Z,96362.47
2023-02-16T16:56:13.390Z,96359.75
2023-02-16T16:58:42.156Z,96317.78
2023-02-16T17:01:13.630Z,96363.00
2023-02-16T17:03:42.139Z,96367.19
2023-02-16T17:06:10.522Z,96306.03
2023-02-16T17:08:38.939Z,96376.59
2023-02-16T17:11:09.514Z,96374.81
2023-02-16T17:13:39.269Z,96362.31
2023-02-16T17:16:13.600Z,96381.78
2023-02-16T17:18:41.832Z,96306.25
2023-02-16T17:21:13.479Z,96381.06
2023-02-16T17:23:52.252Z,96384.94
2023-02-16T17:26:21.045Z,96376.53
2023-02-16T17:28:51.623Z,96367.66
2023-02-16T17:31:19.968Z,96386.75
2023-02-16T17:33:48.359Z,96388.22
2023-02-16T17:36:17.481Z,96358.06
2023-02-16T17:38:46.296Z,96396.44
2023-02-16T17:41:20.525Z,96328.38
2023-02-16T17:43:50.657Z,96397.25
2023-02-16T17:46:20.133Z,96399.69
2023-02-16T17:48:53.588Z,96400.97
2023-02-16T17:51:23.999Z,96408.84
2023-02-16T17:53:52.254Z,96404.72
2023-02-16T17:56:22.922Z,96403.31
2023-02-16T17:58:52.882Z,96406.81
2023-02-16T18:01:23.037Z,96337.56
2023-02-16T18:03:52.514Z,96408.44
2023-02-16T18:06:26.383Z,96407.03
2023-02-16T18:08:56.563Z,96345.22
2023-02-16T18:11:24.959Z,96412.91
2023-02-16T18:13:54.695Z,96424.63
2023-02-16T18:16:27.955Z,96412.50
2023-02-16T18:18:57.492Z,96413.50
2023-02-16T18:21:25.876Z,96415.78
2023-02-16T18:23:54.243Z,96378.72
2023-02-16T18:26:23.908Z,96415.88
2023-02-16T18:28:52.237Z,96418.44
2023-02-16T18:31:22.089Z,96421.06
2023-02-16T18:33:50.488Z,96415.78
2023-02-16T18:36:18.839Z,96417.97
2023-02-16T18:38:47.234Z,96409.63
2023-02-16T18:41:15.512Z,96421.19
2023-02-16T18:43:43.787Z,96430.72
2023-02-16T18:46:12.765Z,96376.84
2023-02-16T18:48:42.644Z,96381.38
2023-02-16T18:51:12.529Z,96423.91
2023-02-16T18:53:40.864Z,96400.59
2023-02-16T18:56:11.507Z,96431.94
2023-02-16T18:58:40.389Z,96403.63
2023-02-16T19:01:16.225Z,96390.00
2023-02-16T19:03:46.017Z,96436.06
2023-02-16T19:06:14.494Z,96434.50
2023-02-16T19:08:42.843Z,96440.25
2023-02-16T19:11:11.120Z,96433.00
2023-02-16T19:13:39.500Z,96433.69
2023-02-16T19:16:08.636Z,96433.38
2023-02-16T19:18:37.090Z,96414.34
2023-02-16T19:21:08.180Z,96431.69
2023-02-16T19:23:38.688Z,96437.09
2023-02-16T19:26:08.760Z,96369.44
2023-02-16T19:28:37.004Z,96434.06
2023-02-16T19:31:07.098Z,96439.28
2023-02-16T19:33:36.038Z,96433.84
2023-02-16T19:36:08.688Z,96435.41
2023-02-16T19:38:37.566Z,96435.03
2023-02-16T19:41:10.678Z,96440.19
2023-02-16T19:43:39.227Z,96446.09
2023-02-16T19:46:07.872Z,96431.22
2023-02-16T19:48:36.864Z,96441.31
2023-02-16T19:51:09.213Z,96443.28
2023-02-16T19:53:38.783Z,96444.06
2023-02-16T19:56:08.233Z,96437.59
2023-02-16T19:58:37.021Z,96292.34
2023-02-16T20:01:08.435Z,96378.66
2023-02-16T20:03:36.787Z,96438.31
2023-02-16T20:06:16.799Z,96443.88
2023-02-16T20:08:46.454Z,96350.00
2023-02-16T20:11:15.707Z,96439.75
2023-02-16T20:13:44.707Z,96399.66
2023-02-16T20:16:14.416Z,96461.34
2023-02-16T20:18:43.248Z,96450.72
2023-02-16T20:21:16.006Z,96368.69
2023-02-16T20:23:45.374Z,96449.88
2023-02-16T20:26:15.661Z,96440.25
2023-02-16T20:28:43.930Z,96442.56
2023-02-16T20:31:14.811Z,96398.53
2023-02-16T20:33:43.426Z,96408.81
2023-02-16T20:36:12.528Z,96441.72
2023-02-16T20:38:44.980Z,96439.31
2023-02-16T20:41:16.357Z,96455.28
2023-02-16T20:43:44.753Z,96448.63
2023-02-16T20:46:15.083Z,96444.06
2023-02-16T20:48:43.599Z,96461.16
2023-02-16T20:51:14.185Z,96456.06
2023-02-16T20:53:44.277Z,96454.69
2023-02-16T20:56:15.610Z,96451.88
2023-02-16T20:58:45.926Z,96415.88
2023-02-16T21:01:15.795Z,96452.69
2023-02-16T21:03:44.822Z,96455.38
2023-02-16T21:06:13.158Z,96463.88
2023-02-16T21:08:41.424Z,96456.06
2023-02-16T21:11:11.358Z,96458.50
2023-02-16T21:13:40.700Z,96460.56
2023-02-16T21:16:10.077Z,96459.94
2023-02-16T21:18:40.588Z,96453.69
2023-02-16T21:21:09.894Z,96438.72
2023-02-16T21:23:38.200Z,96454.25
2023-02-16T21:26:07.264Z,96458.97
2023-02-16T21:28:37.285Z,96459.16
2023-02-16T21:31:09.056Z,96459.88
2023-02-16T21:33:40.283Z,96364.72
2023-02-16T21:36:10.251Z,96456.28
2023-02-16T21:38:39.431Z,96462.31
2023-02-16T21:41:28.887Z,96464.03
2023-02-16T21:44:02.306Z,96421.97
2023-02-16T21:46:33.466Z,96410.41
2023-02-16T21:49:01.072Z,96453.84
2023-02-16T21:51:31.860Z,96432.94
2023-02-16T21:54:00.681Z,96455.72
2023-02-16T21:56:35.305Z,96439.31
2023-02-16T21:59:06.576Z,96463.19
2023-02-16T22:01:37.042Z,96384.84
2023-02-16T22:04:06.357Z,96457.25
2023-02-16T22:06:36.873Z,96447.72
2023-02-16T22:09:07.553Z,96414.16
2023-02-16T22:11:35.861Z,96450.91
2023-02-16T22:14:06.060Z,96458.34
2023-02-16T22:16:36.944Z,96428.66
2023-02-16T22:19:08.895Z,96447.06
2023-02-16T22:21:38.498Z,96461.22
2023-02-16T22:24:07.616Z,96460.41
2023-02-16T22:26:37.146Z,96461.47
2023-02-16T22:29:11.532Z,96459.03
2023-02-16T22:31:40.083Z,96457.78
2023-02-16T22:34:12.986Z,96449.53
2023-02-16T22:36:41.318Z,96264.53
2023-02-16T22:39:09.753Z,96453.59
2023-02-16T22:41:38.107Z,96452.78
2023-02-16T22:44:07.766Z,96452.59
2023-02-16T22:46:37.165Z,96221.97
2023-02-16T22:49:05.418Z,96401.44
2023-02-16T22:51:33.648Z,96452.66
2023-02-16T22:54:02.974Z,96431.94
2023-02-16T22:56:32.057Z,96446.81
2023-02-16T22:59:01.388Z,96453.63
2023-02-16T23:01:32.470Z,96391.53
2023-02-16T23:04:02.680Z,96458.13
2023-02-16T23:06:32.970Z,96399.47
2023-02-16T23:09:03.124Z,96433.28
2023-02-16T23:11:31.725Z,96428.31
2023-02-16T23:14:00.209Z,96443.22
2023-02-16T23:16:30.595Z,96414.75
2023-02-16T23:19:00.579Z,96438.38
2023-02-16T23:21:30.787Z,96431.94
2023-02-16T23:24:00.330Z,96419.97
2023-02-16T23:26:31.299Z,96392.97
2023-02-16T23:29:01.543Z,96429.59
2023-02-16T23:31:34.497Z,96422.00
2023-02-16T23:34:02.936Z,96374.63
2023-02-16T23:36:31.385Z,96387.34
2023-02-16T23:39:01.462Z,96429.72
2023-02-16T23:41:29.868Z,96415.56
2023-02-16T23:44:00.657Z,96425.28
2023-02-16T23:46:29.360Z,96428.88
2023-02-16T23:48:59.077Z,96427.66
2023-02-16T23:51:28.041Z,96420.81
2023-02-16T23:53:57.747Z,96427.28
2023-02-16T23:56:28.310Z,96410.53
2023-02-16T23:58:59.209Z,96413.16
